Airfield :
LOGIN :

Register | Disclaimer

   EN    FR    IT 

 










Legend :    VFR   Marginal VFR   IFR   Intensive IFR   Very Intensive IFR
Visi :
Ceiling :
>= 8 km
>= 3000ft
5 to 8 km
1000 to 3000 ft
1500m to 5 km
500 to 1000 ft
800 to 1500m
200 to 500 ft
< 800m
< 200 ft
Symbols :   Thunderstorms  Fog  Heavy snow  Heavy precipitations  Wind > 20 kt
SIGMETs :     Misc.  Thunderstorms  Icing  Turbulence  Mountain Waves  Volcanic Ashes






- Airport Elevation : 15 ft
- IATA code : BHD


EGAC - George Best Belfast City

CURRENT METAR :
  • 241520Z AUTO 26009G17KT 220V300 9999 -RA BKN019/// OVC026/// 19/15 Q1011

EXPIRED METARs :
  • 241450Z AUTO 26011G19KT 220V300 9999 BKN018/// 20/15 Q1011
  • 241420Z AUTO 26010G20KT 230V300 9999 OVC018/// 19/16 Q1011
  • 241350Z AUTO 25012G22KT 9999 BKN019/// OVC023/// 19/15 Q1011
  • 241320Z AUTO 26009G15KT 230V290 9999 BKN017/// OVC021/// 19/16 Q1011
  • 241250Z AUTO 25010G15KT 220V290 9999 OVC014/// 19/16 Q1011

TAF TAF EGAC
Valid from the 24 at 15:00 until the 24 at 21:00 UTC


241357Z 2415/2421 24009KT 9999 BKN022
PROB30 2419/2421 BKN014
ATIS : +44 02890 935 124



MET'MAP, your aeronautical weather chart ! - Copyright ORBIFLY December 2007 - Disclaimer

ORBIFLY MET'MAP TEAM :

Programming & Development : Alexandra Zaïnal
Concept & original design : Baudouin d'Aumeries
Assistance for programming : Marc-Olivier Méhu
Technical & hardware support : Manuel Goepfert

Contact : metmap@orbifly.com




SOURCES & CREDITS :

   NOAA